Terminal Aerodrome Forecast
Issued by NWS

Home | Current Version | Previous Version | Text Only | Print | Product List | Glossary On
Versions: 1 2 3 4 5 6 7 8 9 10 11 12 13
009
FTUS45 KPSR 071120
TAFBLH
TAF
KBLH 071120Z 0712/0812 34006KT P6SM SCT150 BKN200
     FM071800 36015G20KT P6SM BKN250
     FM080200 34008KT P6SM FEW140 SCT250=

USA.gov is the U.S. government's official web portal to all federal, state and local government web resources and services.